Latest Weather Observations for Curtin

IDW60801

Issued at 5:32 pm WST Thursday 2 July 2015 (issued every 30 minutes, with the page automatically refreshed every 10 minutes)

About weather observations | Map of weather stations | Latest weather observations for WA | Other Formats
Station Details ID: 003080 Name: CURTIN AERO Lat: -17.58 Lon: 123.83 Height: 77.5 m
Data from the previous 72 hours. | See also: Recent months at Curtin
Date/Time
WST
Temp
°C
App
Temp
°C
Dew
Point
Rel
Hum
%
Delta-T
°C
Wind Press
QNH
hPa
Press
MSL
hPa
Rain
since 9 am
mm
Dir
 
Spd
km/h
Gust
km/h
Spd
kts
Gust
kts
02/05:30pm 25.8 23.6 7.9 32 9.6 SE 9 11 5 6 1015.2 1014.8 0.0
02/05:00pm 29.2 27.0 7.7 26 11.7 SSE 9 13 5 7 1015.1 1014.7 0.0
02/04:30pm 30.4 28.3 8.2 25 12.2 ENE 9 13 5 7 1015.0 1014.6 0.0
02/04:00pm 30.8 28.2 7.9 24 12.6 ESE 11 15 6 8 1014.8 1014.4 0.0
02/03:30pm 31.0 29.1 7.5 23 12.9 ENE 7 11 4 6 1014.8 1014.4 0.0
02/03:00pm 31.4 29.2 7.8 23 13.0 NNE 9 13 5 7 1014.9 1014.5 0.0
02/02:30pm 31.6 29.3 7.3 22 13.3 NNE 9 17 5 9 1015.0 1014.6 0.0
02/02:00pm 31.6 29.0 7.9 23 13.1 N 11 20 6 11 1015.3 1014.9 0.0
02/01:30pm 31.1 27.7 7.5 23 12.9 E 15 20 8 11 1015.7 1015.3 0.0
02/01:00pm 30.7 27.5 8.4 25 12.3 E 15 22 8 12 1016.0 1015.6 0.0
02/12:30pm 31.1 27.5 8.2 24 12.7 NE 17 24 9 13 1016.5 1016.2 0.0
02/12:00pm 30.8 27.1 7.9 24 12.6 ESE 17 24 9 13 1017.0 1016.7 0.0
02/11:30am 30.6 26.7 9.5 27 11.9 ESE 20 32 11 17 1017.6 1017.3 0.0
02/11:00am 30.1 26.6 10.1 29 11.3 E 19 33 10 18 1018.2 1017.9 0.0
02/10:30am 29.0 24.4 9.7 30 10.8 E 24 35 13 19 1018.7 1018.4 0.0
02/10:00am 28.9 24.8 10.1 31 10.6 E 22 32 12 17 1018.9 1018.6 0.0
02/09:30am 27.7 22.9 9.0 31 10.3 E 24 32 13 17 1019.3 1019.0 0.0
02/09:00am 26.4 22.5 9.3 34 9.4 ESE 20 30 11 16 1019.4 1019.1 0.0
02/08:30am 24.8 20.6 8.3 35 8.8 ESE 20 30 11 16 1019.4 1019.1 0.0
02/08:00am 23.5 19.8 8.0 37 8.2 ESE 17 24 9 13 1019.4 1019.1 0.0
02/07:30am 21.7 17.5 7.5 40 7.4 ESE 19 26 10 14 1019.1 1018.8 0.0
02/07:00am 20.1 16.2 7.1 43 6.6 SE 17 24 9 13 1018.7 1018.4 0.0
02/06:30am 19.8 15.9 6.9 43 6.5 SE 17 20 9 11 1018.5 1018.2 0.0
02/06:00am 20.0 16.0 6.7 42 6.7 SE 17 24 9 13 1018.1 1017.8 0.0
02/05:30am 20.3 16.3 6.6 41 6.9 SE 17 24 9 13 1017.9 1017.6 0.0
02/05:00am 20.8 16.8 6.7 40 7.2 ESE 17 22 9 12 1017.7 1017.4 0.0
02/04:30am 20.9 16.9 6.8 40 7.2 ESE 17 24 9 13 1017.7 1017.4 0.0
02/04:00am 20.4 16.8 6.7 41 6.9 ESE 15 26 8 14 1017.7 1017.4 0.0
02/03:30am 19.4 15.4 6.8 44 6.4 SE 17 20 9 11 1017.4 1017.1 0.0
02/03:00am 19.4 15.7 6.5 43 6.5 SE 15 19 8 10 1017.4 1017.1 0.0
02/02:30am 19.3 15.6 6.4 43 6.5 SE 15 20 8 11 1017.6 1017.3 0.0
02/02:00am 19.4 16.1 6.2 42 6.6 ESE 13 17 7 9 1017.7 1017.4 0.0
02/01:30am 19.8 16.4 5.8 40 6.9 SE 13 17 7 9 1018.0 1017.7 0.0
02/01:00am 20.8 17.3 5.6 37 7.6 SE 13 20 7 11 1018.2 1017.9 0.0
02/12:30am 21.8 18.0 5.7 35 8.1 SE 15 20 8 11 1018.2 1017.9 0.0
02/12:00am 22.0 18.2 5.8 35 8.1 SE 15 20 8 11 1018.2 1017.9 0.0
 
Date/Time
WST
Temp
°C
App
Temp
°C
Dew
Point
Rel
Hum
%
Delta-T
°C
Wind Press
QNH
hPa
Press
MSL
hPa
Rain
since 9 am
mm
Dir
 
Spd
km/h
Gust
km/h
Spd
kts
Gust
kts
01/11:30pm 22.3 18.4 5.3 33 8.5 SE 15 20 8 11 1018.2 1017.9 0.0
01/11:00pm 22.2 18.6 5.2 33 8.5 SE 13 20 7 11 1018.3 1018.0 0.0
01/10:30pm 22.2 19.0 5.2 33 8.5 SE 11 15 6 8 1018.4 1018.1 0.0
01/10:00pm 22.5 19.3 5.0 32 8.7 SE 11 15 6 8 1018.4 1018.1 0.0
01/09:30pm 22.6 18.9 4.6 31 8.9 SE 13 15 7 8 1018.4 1018.1 0.0
01/09:00pm 23.3 19.7 4.8 30 9.2 SE 13 17 7 9 1018.4 1018.1 0.0
01/08:30pm 22.9 19.7 4.9 31 9.0 SE 11 13 6 7 1018.2 1017.9 0.0
01/08:00pm 20.6 17.6 4.2 34 7.9 ESE 9 13 5 7 1018.0 1017.7 0.0
01/07:30pm 23.4 20.2 4.9 30 9.2 SE 11 13 6 7 1017.7 1017.4 0.0
01/07:00pm 23.4 20.2 5.3 31 9.1 SE 11 13 6 7 1017.3 1017.0 0.0
01/06:30pm 20.3 17.3 3.9 34 7.9 SE 9 11 5 6 1016.8 1016.5 0.0
01/06:00pm 22.1 19.0 3.7 30 8.9 SSE 9 11 5 6 1016.5 1016.2 0.0
01/05:30pm 25.5 22.5 4.0 25 10.7 SE 9 11 5 6 1016.2 1015.9 0.0
01/05:00pm 28.7 26.0 3.5 20 12.7 SE 7 11 4 6 1016.1 1015.7 0.0
01/04:30pm 29.8 26.6 2.9 18 13.5 ESE 9 15 5 8 1015.9 1015.5 0.0
01/04:00pm 30.5 27.0 3.5 18 13.8 SSE 11 17 6 9 1015.8 1015.4 0.0
01/03:30pm 30.6 26.4 3.6 18 13.8 SE 15 24 8 13 1015.7 1015.3 0.0
01/03:00pm 31.1 27.5 3.2 17 14.2 SE 11 26 6 14 1015.8 1015.4 0.0
01/02:30pm 30.9 26.9 3.0 17 14.2 ENE 13 26 7 14 1015.9 1015.5 0.0
01/02:00pm 30.9 26.9 3.0 17 14.1 SE 13 26 7 14 1016.1 1015.7 0.0
01/01:30pm 31.0 26.9 2.3 16 14.4 NE 13 20 7 11 1016.4 1016.1 0.0
01/01:00pm 30.2 25.9 3.3 18 13.6 NNE 15 24 8 13 1016.7 1016.4 0.0
01/12:30pm 30.5 27.4 3.5 18 13.8 ENE 9 17 5 9 1017.1 1016.8 0.0
01/12:00pm 30.2 25.5 3.3 18 13.6 ENE 17 28 9 15 1017.8 1017.5 0.0
01/11:30am 29.7 25.3 2.9 18 13.5 NE 15 30 8 16 1018.3 1018.0 0.0
01/11:00am 30.1 25.3 4.7 20 13.2 E 19 30 10 16 1018.8 1018.5 0.0
01/10:30am 29.2 24.2 4.6 21 12.7 E 20 30 11 16 1019.2 1018.9 0.0
01/10:00am 28.6 24.2 4.8 22 12.2 E 17 26 9 14 1019.6 1019.3 0.0
01/09:30am 27.5 22.8 5.1 24 11.5 E 19 28 10 15 1019.9 1019.6 0.0
01/09:00am 26.1 21.2 5.1 26 10.7 E 20 26 11 14 1020.0 1019.7 0.0
01/08:30am 24.8 20.4 4.5 27 10.2 E 17 24 9 13 1020.0 1019.7 0.0
01/08:00am 22.7 18.6 4.2 30 9.1 ESE 15 22 8 12 1019.8 1019.5 0.0
01/07:30am 20.7 16.4 3.4 32 8.2 ESE 15 22 8 12 1019.5 1019.2 0.0
01/07:00am 19.6 15.2 2.9 33 7.8 ESE 15 22 8 12 1019.3 1019.0 0.0
01/06:30am 18.2 13.7 2.1 34 7.3 ESE 15 20 8 11 1019.0 1018.7 0.0
01/06:00am 17.8 13.2 1.7 34 7.2 ESE 15 20 8 11 1018.6 1018.3 0.0
01/05:30am 17.7 12.8 1.7 34 7.2 ESE 17 24 9 13 1018.3 1017.9 0.0
01/05:00am 18.0 13.0 1.5 33 7.4 ESE 17 22 9 12 1018.1 1017.7 0.0
01/04:30am 18.2 13.1 0.8 31 7.7 SE 17 22 9 12 1018.0 1017.6 0.0
01/04:00am 18.7 14.0 1.2 31 7.8 SE 15 20 8 11 1017.9 1017.5 0.0
01/03:30am 19.2 14.5 0.8 29 8.2 SE 15 20 8 11 1017.8 1017.4 0.0
01/03:00am 19.5 14.0 0.5 28 8.5 SE 19 24 10 13 1017.7 1017.3 0.0
01/02:30am 19.6 15.2 0.1 27 8.6 SE 13 15 7 8 1017.6 1017.2 0.0
01/02:00am 19.8 15.4 0.3 27 8.7 SE 13 19 7 10 1017.9 1017.5 0.0
01/01:30am 20.6 15.4 0.4 26 9.1 SE 17 20 9 11 1018.0 1017.6 0.0
01/01:00am 21.1 16.7 0.3 25 9.3 ESE 13 19 7 10 1018.1 1017.7 0.0
01/12:30am 21.5 17.1 0.1 24 9.6 SE 13 17 7 9 1018.3 1017.9 0.0
01/12:00am 21.1 16.3 0.3 25 9.3 SE 15 17 8 9 1018.2 1017.8 0.0
 
Date/Time
WST
Temp
°C
App
Temp
°C
Dew
Point
Rel
Hum
%
Delta-T
°C
Wind Press
QNH
hPa
Press
MSL
hPa
Rain
since 9 am
mm
Dir
 
Spd
km/h
Gust
km/h
Spd
kts
Gust
kts
30/11:30pm 21.2 16.4 0.4 25 9.4 SE 15 19 8 10 1018.3 1017.9 0.0
30/11:00pm 21.7 17.4 0.8 25 9.5 SE 13 17 7 9 1018.4 1018.0 0.0
30/10:30pm 21.3 17.3 0.5 25 9.4 SE 11 15 6 8 1018.4 1018.0 0.0
30/10:00pm 22.0 17.6 0.5 24 9.8 SE 13 19 7 10 1018.5 1018.2 0.0
30/09:30pm 22.5 18.2 0.9 24 9.9 SE 13 17 7 9 1018.6 1018.3 0.0
30/09:00pm 23.0 18.3 0.8 23 10.2 SE 15 20 8 11 1018.5 1018.2 0.0
30/08:30pm 22.5 18.1 0.4 23 10.1 SE 13 19 7 10 1018.3 1017.9 0.0
30/08:00pm 22.7 18.7 0.5 23 10.1 SE 11 15 6 8 1018.0 1017.6 0.0
30/07:30pm 23.5 19.1 0.6 22 10.6 SE 13 17 7 9 1017.7 1017.3 0.0
30/07:00pm 23.5 19.7 1.8 24 10.2 SE 11 15 6 8 1017.4 1017.0 0.0
30/06:30pm 23.6 19.9 2.4 25 10.1 SE 11 13 6 7 1017.0 1016.6 0.0
30/06:00pm 21.6 18.2 1.8 27 9.2 SE 9 11 5 6 1016.6 1016.2 0.0
30/05:30pm 24.7 21.4 2.2 23 10.8 ESE 9 11 5 6 1016.4 1016.0 0.0
30/05:00pm 28.4 24.9 1.0 17 13.2 SE 9 13 5 7 1016.1 1015.7 0.0
30/04:30pm 29.6 25.6 0.2 15 14.1 ESE 11 15 6 8 1015.7 1015.3 0.0
30/04:00pm 30.1 25.7 0.6 15 14.3 SSE 13 19 7 10 1015.5 1015.1 0.0
30/03:30pm 30.9 26.6 1.3 15 14.6 SE 13 19 7 10 1015.4 1015.0 0.0
30/03:00pm 30.9 26.6 1.3 15 14.6 SSE 13 22 7 12 1015.4 1015.0 0.0
30/02:30pm 31.1 27.6 1.4 15 14.7 S 9 13 5 7 1015.4 1015.0 0.0
30/02:00pm 30.5 27.2 0.0 14 14.6 NNE 7 15 4 8 1015.7 1015.3 0.0
30/01:30pm 30.8 25.6 0.2 14 14.8 ESE 17 24 9 13 1015.9 1015.5 0.0
30/01:00pm 30.6 26.7 1.0 15 14.5 ENE 11 20 6 11 1016.4 1016.0 0.0
30/12:30pm 30.4 26.1 0.9 15 14.4 E 13 26 7 14 1017.0 1016.6 0.0
30/12:00pm 30.5 25.9 3.5 18 13.8 E 17 26 9 14 1017.6 1017.2 0.0
30/11:30am 30.2 25.7 4.0 19 13.5 E 17 28 9 15 1018.1 1017.7 0.0
30/11:00am 28.8 23.6 3.6 20 12.7 ESE 20 30 11 16 1018.5 1018.2 0.0
30/10:30am 27.9 22.9 3.6 21 12.2 E 19 35 10 19 1018.9 1018.6 0.0
30/10:00am 26.7 21.6 3.9 23 11.4 E 20 30 11 16 1019.2 1018.9 0.0
30/09:30am 25.4 20.3 4.0 25 10.7 E 20 28 11 15 1019.3 1019.0 0.0
30/09:00am 24.3 19.1 3.6 26 10.1 ESE 20 32 11 17 1019.3 1019.0 0.0
30/08:30am 23.2 17.9 3.2 27 9.7 ESE 20 32 11 17 1019.1 1018.8 0.0
30/08:00am 21.1 15.9 2.4 29 8.7 ESE 19 26 10 14 1019.0 1018.7 0.0
30/07:30am 19.1 13.8 1.6 31 8.0 SE 19 28 10 15 1018.7 1018.4 0.0
30/07:00am 17.3 11.7 0.9 33 7.2 SE 20 28 11 15 1018.4 1018.0 0.0
30/06:30am 16.3 10.8 0.4 34 6.9 SE 19 30 10 16 1018.2 1017.8 0.0
30/06:00am 16.7 11.2 0.4 33 7.1 SE 19 26 10 14 1017.8 1017.4 0.0
30/05:30am 16.3 10.8 0.4 34 6.9 SE 19 24 10 13 1017.3 1016.9 0.0
30/05:00am 16.7 11.5 -0.1 32 7.2 SE 17 24 9 13 1017.0 1016.6 0.0
30/04:30am 17.3 12.1 0.0 31 7.5 SE 17 24 9 13 1016.9 1016.5 0.0
30/04:00am 17.4 12.6 0.1 31 7.5 SE 15 20 8 11 1016.9 1016.5 0.0
30/03:30am 17.4 12.1 -0.3 30 7.6 SE 17 22 9 12 1016.9 1016.5 0.0
30/03:00am 18.1 12.4 -0.7 28 8.1 SSE 19 24 10 13 1016.9 1016.5 0.0
30/02:30am 18.9 13.6 -0.5 27 8.4 SE 17 24 9 13 1017.2 1016.8 0.0
30/02:00am 19.0 13.2 -0.4 27 8.4 SSE 20 26 11 14 1017.2 1016.8 0.0
30/01:30am 18.7 13.1 -0.2 28 8.2 SE 19 26 10 14 1017.4 1017.0 0.0
30/01:00am 18.6 13.0 0.2 29 8.1 SE 19 26 10 14 1017.8 1017.4 0.0
30/12:30am 19.4 14.2 0.4 28 8.4 SE 17 24 9 13 1017.8 1017.4 0.0
30/12:00am 20.0 14.5 0.5 27 8.7 SSE 19 24 10 13 1017.8 1017.4 0.0
 
Date/Time
WST
Temp
°C
App
Temp
°C
Dew
Point
Rel
Hum
%
Delta-T
°C
Wind Press
QNH
hPa
Press
MSL
hPa
Rain
since 9 am
mm
Dir
 
Spd
km/h
Gust
km/h
Spd
kts
Gust
kts
29/11:30pm 20.6 15.4 0.4 26 9.1 SE 17 24 9 13 1017.9 1017.5 0.0
29/11:00pm 20.1 15.3 0.5 27 8.8 SE 15 19 8 10 1018.1 1017.7 0.0
29/10:30pm 19.8 15.4 0.3 27 8.7 SE 13 19 7 10 1018.1 1017.7 0.0
29/10:00pm 20.1 15.7 0.5 27 8.8 SSE 13 17 7 9 1018.3 1017.9 0.0
29/09:30pm 20.4 16.1 0.8 27 8.9 SE 13 15 7 8 1018.1 1017.7 0.0
29/09:00pm 20.3 16.3 0.7 27 8.8 SE 11 13 6 7 1018.2 1017.8 0.0
29/08:30pm 21.2 17.2 0.4 25 9.4 SE 11 13 6 7 1018.0 1017.6 0.0
29/08:00pm 21.6 17.6 0.8 25 9.5 SE 11 15 6 8 1017.8 1017.4 0.0
29/07:30pm 22.3 18.0 0.8 24 9.9 SSE 13 17 7 9 1017.4 1017.0 0.0
29/07:00pm 22.8 18.4 0.6 23 10.2 SE 13 17 7 9 1017.2 1016.8 0.0
29/06:30pm 22.7 18.8 1.1 24 10.0 SSE 11 15 6 8 1016.9 1016.5 0.0
29/06:00pm 22.9 19.3 0.7 23 10.2 SSE 9 11 5 6 1016.6 1016.2 0.0

Other Formats:

Comma delimited format used in spreadsheet applications
http://www.bom.gov.au/fwo/IDW60801/IDW60801.94204.axf

JavaScript Object Notation format (JSON) in row-major order
http://www.bom.gov.au/fwo/IDW60801/IDW60801.94204.json